DAL1152 KLAX-KPHX
Flight info
| Callsign | DAL1152 |
|---|---|
| Flight time | 0h 57m |
| Altitude | 31000 |
| Route | DOTSS2 CNERY BLH HYDRR1 |
| Aircraft | A320/M-SDE3FGHIRWY/LB1 |
Departure
| Time | 2026-05-05 15:06 |
|---|---|
| Airport | Los Angeles International Airport (KLAX) |
Arrival
| Time | 2026-05-05 16:03 |
|---|---|
| Airport | Phoenix Sky Harbor International Airport (KPHX) |
| Time | Latitude | Longitude | Altitude | Speed | Heading |
|---|---|---|---|---|---|
| 2026-05-05 14:38 | 33.94673 | -118.40335 | 121 ft | 0 kts | 263° |
| 2026-05-05 14:57 | 33.94676 | -118.40309 | 121 ft | 4 kts | 263° |
| 2026-05-05 14:57 | 33.94678 | -118.40282 | 121 ft | 4 kts | 276° |
| 2026-05-05 14:57 | 33.94670 | -118.40255 | 120 ft | 4 kts | 322° |
| 2026-05-05 14:58 | 33.94657 | -118.40246 | 121 ft | 0 kts | 353° |
| 2026-05-05 15:00 | 33.94672 | -118.40249 | 124 ft | 4 kts | 353° |
| 2026-05-05 15:00 | 33.94710 | -118.40255 | 124 ft | 5 kts | 353° |
| 2026-05-05 15:01 | 33.94741 | -118.40259 | 124 ft | 0 kts | 353° |
| 2026-05-05 15:01 | 33.94743 | -118.40260 | 124 ft | 2 kts | 353° |
| 2026-05-05 15:01 | 33.94799 | -118.40268 | 125 ft | 9 kts | 350° |
| 2026-05-05 15:02 | 33.94855 | -118.40287 | 124 ft | 8 kts | 354° |
| 2026-05-05 15:02 | 33.94901 | -118.40234 | 122 ft | 10 kts | 76° |
| 2026-05-05 15:02 | 33.94912 | -118.40147 | 125 ft | 11 kts | 82° |
| 2026-05-05 15:02 | 33.94921 | -118.40062 | 124 ft | 10 kts | 83° |
| 2026-05-05 15:03 | 33.94928 | -118.39988 | 125 ft | 8 kts | 83° |
| 2026-05-05 15:03 | 33.94948 | -118.39932 | 123 ft | 7 kts | 43° |
| 2026-05-05 15:03 | 33.94952 | -118.39928 | 125 ft | 0 kts | 38° |
| 2026-05-05 15:04 | 33.94954 | -118.39926 | 123 ft | 3 kts | 34° |
| 2026-05-05 15:04 | 33.95016 | -118.39923 | 123 ft | 11 kts | 335° |
| 2026-05-05 15:05 | 33.94996 | -118.40395 | 126 ft | 81 kts | 263° |
| 2026-05-05 15:05 | 33.94901 | -118.41308 | 122 ft | 136 kts | 263° |
| 2026-05-05 15:05 | 33.94779 | -118.42620 | 141 ft | 178 kts | 265° |
| 2026-05-05 15:06 | 33.94632 | -118.44144 | 620 ft | 186 kts | 263° |
| 2026-05-05 15:06 | 33.94473 | -118.45677 | 1442 ft | 183 kts | 263° |
| 2026-05-05 15:06 | 33.94342 | -118.47209 | 2117 ft | 188 kts | 266° |
| 2026-05-05 15:06 | 33.94269 | -118.48877 | 2429 ft | 210 kts | 268° |
| 2026-05-05 15:07 | 33.94215 | -118.50714 | 2785 ft | 231 kts | 268° |
| 2026-05-05 15:07 | 33.94103 | -118.52738 | 3291 ft | 250 kts | 265° |
| 2026-05-05 15:07 | 33.93948 | -118.54819 | 4115 ft | 255 kts | 265° |
| 2026-05-05 15:07 | 33.93774 | -118.56963 | 5037 ft | 259 kts | 265° |
| 2026-05-05 15:08 | 33.93596 | -118.59135 | 5952 ft | 263 kts | 265° |
| 2026-05-05 15:08 | 33.93200 | -118.61307 | 6786 ft | 270 kts | 245° |
| 2026-05-05 15:08 | 33.92039 | -118.63089 | 7580 ft | 276 kts | 218° |
| 2026-05-05 15:08 | 33.90283 | -118.64050 | 8405 ft | 284 kts | 191° |
| 2026-05-05 15:09 | 33.88292 | -118.64079 | 9237 ft | 289 kts | 178° |
| 2026-05-05 15:09 | 33.86273 | -118.63926 | 10055 ft | 292 kts | 177° |
| 2026-05-05 15:09 | 33.84238 | -118.63359 | 10411 ft | 315 kts | 156° |
| 2026-05-05 15:09 | 33.82434 | -118.61723 | 10711 ft | 337 kts | 129° |
| 2026-05-05 15:10 | 33.81405 | -118.59173 | 11301 ft | 345 kts | 102° |
| 2026-05-05 15:10 | 33.81170 | -118.56292 | 11993 ft | 349 kts | 94° |
| 2026-05-05 15:10 | 33.80914 | -118.53373 | 12724 ft | 353 kts | 97° |
| 2026-05-05 15:10 | 33.80545 | -118.50441 | 13440 ft | 357 kts | 99° |
| 2026-05-05 15:11 | 33.80129 | -118.47485 | 14100 ft | 360 kts | 99° |
| 2026-05-05 15:11 | 33.79709 | -118.44503 | 14736 ft | 363 kts | 99° |
| 2026-05-05 15:11 | 33.79304 | -118.41493 | 15372 ft | 366 kts | 99° |
| 2026-05-05 15:11 | 33.78919 | -118.38460 | 16008 ft | 369 kts | 98° |
| 2026-05-05 15:12 | 33.78545 | -118.35396 | 16635 ft | 371 kts | 98° |
| 2026-05-05 15:12 | 33.78171 | -118.32312 | 17254 ft | 374 kts | 98° |
| 2026-05-05 15:12 | 33.77796 | -118.29207 | 17847 ft | 378 kts | 98° |
| 2026-05-05 15:12 | 33.77420 | -118.26053 | 18447 ft | 382 kts | 98° |
| 2026-05-05 15:13 | 33.77044 | -118.22882 | 19019 ft | 385 kts | 98° |
| 2026-05-05 15:13 | 33.76669 | -118.19730 | 19575 ft | 387 kts | 98° |
| 2026-05-05 15:13 | 33.76281 | -118.16515 | 20125 ft | 390 kts | 98° |
| 2026-05-05 15:13 | 33.75887 | -118.13280 | 20657 ft | 393 kts | 98° |
| 2026-05-05 15:14 | 33.75488 | -118.10016 | 21164 ft | 396 kts | 98° |
| 2026-05-05 15:14 | 33.75086 | -118.06729 | 21700 ft | 399 kts | 99° |
| 2026-05-05 15:14 | 33.74681 | -118.03415 | 22241 ft | 402 kts | 99° |
| 2026-05-05 15:14 | 33.74276 | -118.00079 | 22764 ft | 405 kts | 99° |
| 2026-05-05 15:15 | 33.73865 | -117.96716 | 23278 ft | 408 kts | 99° |
| 2026-05-05 15:15 | 33.73450 | -117.93332 | 23748 ft | 411 kts | 99° |
| 2026-05-05 15:15 | 33.73029 | -117.89923 | 24146 ft | 414 kts | 99° |
| 2026-05-05 15:15 | 33.72606 | -117.86486 | 24535 ft | 417 kts | 99° |
| 2026-05-05 15:16 | 33.72183 | -117.83024 | 24911 ft | 421 kts | 99° |
| 2026-05-05 15:16 | 33.71755 | -117.79529 | 25277 ft | 424 kts | 99° |
| 2026-05-05 15:16 | 33.71320 | -117.76010 | 25663 ft | 428 kts | 99° |
| 2026-05-05 15:16 | 33.70876 | -117.72459 | 26112 ft | 433 kts | 99° |
| 2026-05-05 15:17 | 33.70426 | -117.68866 | 26599 ft | 436 kts | 100° |
| 2026-05-05 15:17 | 33.69970 | -117.65244 | 26932 ft | 441 kts | 100° |
| 2026-05-05 15:17 | 33.69509 | -117.61591 | 27241 ft | 444 kts | 100° |
| 2026-05-05 15:17 | 33.69047 | -117.57915 | 27565 ft | 448 kts | 100° |
| 2026-05-05 15:18 | 33.68580 | -117.54201 | 27881 ft | 451 kts | 101° |
| 2026-05-05 15:18 | 33.68108 | -117.50463 | 28209 ft | 454 kts | 101° |
| 2026-05-05 15:18 | 33.67630 | -117.46706 | 28508 ft | 457 kts | 101° |
| 2026-05-05 15:18 | 33.67150 | -117.42924 | 28783 ft | 460 kts | 101° |
| 2026-05-05 15:19 | 33.66667 | -117.39112 | 29088 ft | 463 kts | 101° |
| 2026-05-05 15:19 | 33.66183 | -117.35281 | 29401 ft | 466 kts | 101° |
| 2026-05-05 15:19 | 33.65693 | -117.31412 | 29703 ft | 469 kts | 101° |
| 2026-05-05 15:19 | 33.65196 | -117.27530 | 29994 ft | 472 kts | 102° |
| 2026-05-05 15:20 | 33.64699 | -117.23679 | 30222 ft | 475 kts | 102° |
| 2026-05-05 15:20 | 33.64188 | -117.19746 | 30414 ft | 479 kts | 102° |
| 2026-05-05 15:20 | 33.63676 | -117.15790 | 30677 ft | 480 kts | 102° |
| 2026-05-05 15:20 | 33.63165 | -117.11825 | 30912 ft | 482 kts | 102° |
| 2026-05-05 15:21 | 33.62644 | -117.07828 | 31012 ft | 488 kts | 102° |
| 2026-05-05 15:21 | 33.61572 | -116.99682 | 31037 ft | 501 kts | 103° |
| 2026-05-05 15:22 | 33.60486 | -116.91368 | 31026 ft | 506 kts | 103° |
| 2026-05-05 15:22 | 33.59392 | -116.83017 | 31012 ft | 509 kts | 103° |
| 2026-05-05 15:23 | 33.58277 | -116.74616 | 30998 ft | 511 kts | 103° |
| 2026-05-05 15:23 | 33.57155 | -116.66193 | 30985 ft | 511 kts | 104° |
| 2026-05-05 15:24 | 33.56029 | -116.57789 | 30963 ft | 511 kts | 104° |
| 2026-05-05 15:24 | 33.54896 | -116.49393 | 30950 ft | 511 kts | 104° |
| 2026-05-05 15:25 | 33.53767 | -116.41042 | 30946 ft | 510 kts | 104° |
| 2026-05-05 15:25 | 33.52625 | -116.32636 | 30920 ft | 513 kts | 105° |
| 2026-05-05 15:26 | 33.51462 | -116.24175 | 30898 ft | 515 kts | 105° |
| 2026-05-05 15:26 | 33.50287 | -116.15664 | 30931 ft | 519 kts | 105° |
| 2026-05-05 15:27 | 33.49324 | -116.07057 | 30928 ft | 526 kts | 97° |
| 2026-05-05 15:27 | 33.50180 | -115.98275 | 30925 ft | 538 kts | 77° |
| 2026-05-05 15:28 | 33.52597 | -115.89812 | 30902 ft | 541 kts | 73° |
| 2026-05-05 15:28 | 33.55091 | -115.81295 | 30913 ft | 543 kts | 73° |
| 2026-05-05 15:29 | 33.57578 | -115.72728 | 30913 ft | 544 kts | 74° |
| 2026-05-05 15:29 | 33.59644 | -115.65599 | 30914 ft | 544 kts | 74° |
| 2026-05-05 15:30 | 33.62348 | -115.55506 | 30891 ft | 539 kts | 86° |
| 2026-05-05 15:30 | 33.62556 | -115.52563 | 30899 ft | 530 kts | 97° |
| 2026-05-05 15:30 | 33.62445 | -115.48154 | 30905 ft | 528 kts | 99° |
| 2026-05-05 15:31 | 33.62127 | -115.39338 | 30907 ft | 529 kts | 99° |
| 2026-05-05 15:31 | 33.61776 | -115.30508 | 30899 ft | 531 kts | 100° |
| 2026-05-05 15:32 | 33.61427 | -115.21614 | 30910 ft | 535 kts | 100° |
| 2026-05-05 15:32 | 33.61093 | -115.12678 | 30912 ft | 536 kts | 100° |
| 2026-05-05 15:33 | 33.60749 | -115.03736 | 30925 ft | 536 kts | 100° |
| 2026-05-05 15:33 | 33.60384 | -114.94778 | 30937 ft | 541 kts | 102° |
| 2026-05-05 15:34 | 33.60005 | -114.85764 | 30935 ft | 546 kts | 102° |
| 2026-05-05 15:34 | 33.59548 | -114.76677 | 30933 ft | 541 kts | 107° |
| 2026-05-05 15:35 | 33.58037 | -114.67978 | 30939 ft | 531 kts | 113° |
| 2026-05-05 15:35 | 33.56354 | -114.59350 | 30937 ft | 531 kts | 113° |
| 2026-05-05 15:35 | 33.55515 | -114.55049 | 30429 ft | 528 kts | 113° |
| 2026-05-05 15:36 | 33.54680 | -114.50765 | 29939 ft | 528 kts | 113° |
| 2026-05-05 15:36 | 33.53841 | -114.46470 | 29656 ft | 529 kts | 112° |
| 2026-05-05 15:36 | 33.52999 | -114.42180 | 29375 ft | 529 kts | 112° |
| 2026-05-05 15:36 | 33.52156 | -114.37895 | 29077 ft | 528 kts | 112° |
| 2026-05-05 15:37 | 33.51317 | -114.33628 | 28519 ft | 524 kts | 112° |
| 2026-05-05 15:37 | 33.50478 | -114.29371 | 27081 ft | 527 kts | 111° |
| 2026-05-05 15:37 | 33.49634 | -114.25107 | 25871 ft | 524 kts | 110° |
| 2026-05-05 15:37 | 33.48809 | -114.20919 | 25439 ft | 505 kts | 109° |
| 2026-05-05 15:38 | 33.48028 | -114.16912 | 25333 ft | 484 kts | 109° |
| 2026-05-05 15:38 | 33.47274 | -114.13053 | 25205 ft | 466 kts | 110° |
| 2026-05-05 15:38 | 33.46542 | -114.09347 | 25081 ft | 450 kts | 110° |
| 2026-05-05 15:38 | 33.45823 | -114.05749 | 24768 ft | 440 kts | 111° |
| 2026-05-05 15:39 | 33.45108 | -114.02216 | 24599 ft | 434 kts | 111° |
| 2026-05-05 15:39 | 33.44391 | -113.98716 | 24477 ft | 432 kts | 111° |
| 2026-05-05 15:39 | 33.43678 | -113.95230 | 24325 ft | 430 kts | 110° |
| 2026-05-05 15:39 | 33.42971 | -113.91753 | 24160 ft | 428 kts | 110° |
| 2026-05-05 15:40 | 33.42275 | -113.88298 | 23993 ft | 427 kts | 110° |
| 2026-05-05 15:40 | 33.41584 | -113.84850 | 23947 ft | 424 kts | 110° |
| 2026-05-05 15:40 | 33.40894 | -113.81413 | 23789 ft | 424 kts | 110° |
| 2026-05-05 15:40 | 33.40207 | -113.77996 | 23488 ft | 420 kts | 109° |
| 2026-05-05 15:41 | 33.39525 | -113.74606 | 23326 ft | 419 kts | 110° |
| 2026-05-05 15:41 | 33.38841 | -113.71221 | 23160 ft | 419 kts | 111° |
| 2026-05-05 15:41 | 33.38157 | -113.67858 | 23030 ft | 422 kts | 111° |
| 2026-05-05 15:41 | 33.37462 | -113.64436 | 22861 ft | 422 kts | 111° |
| 2026-05-05 15:42 | 33.36771 | -113.61024 | 22693 ft | 421 kts | 111° |
| 2026-05-05 15:42 | 33.36084 | -113.57630 | 22539 ft | 420 kts | 111° |
| 2026-05-05 15:42 | 33.35394 | -113.54238 | 22358 ft | 418 kts | 111° |
| 2026-05-05 15:42 | 33.34707 | -113.50860 | 22194 ft | 417 kts | 111° |
| 2026-05-05 15:43 | 33.34018 | -113.47493 | 22022 ft | 416 kts | 111° |
| 2026-05-05 15:43 | 33.33342 | -113.44140 | 21809 ft | 415 kts | 110° |
| 2026-05-05 15:43 | 33.32723 | -113.40767 | 21479 ft | 413 kts | 109° |
| 2026-05-05 15:43 | 33.32151 | -113.37405 | 21222 ft | 411 kts | 108° |
| 2026-05-05 15:44 | 33.31602 | -113.34065 | 20959 ft | 409 kts | 108° |
| 2026-05-05 15:44 | 33.31054 | -113.30722 | 20690 ft | 407 kts | 108° |
| 2026-05-05 15:44 | 33.30502 | -113.27414 | 20424 ft | 404 kts | 108° |
| 2026-05-05 15:44 | 33.29942 | -113.24131 | 20168 ft | 402 kts | 108° |
| 2026-05-05 15:45 | 33.29399 | -113.20906 | 19908 ft | 400 kts | 107° |
| 2026-05-05 15:45 | 33.28898 | -113.17621 | 19648 ft | 399 kts | 105° |
| 2026-05-05 15:45 | 33.28436 | -113.14363 | 19388 ft | 397 kts | 105° |
| 2026-05-05 15:45 | 33.27990 | -113.11107 | 19132 ft | 395 kts | 104° |
| 2026-05-05 15:46 | 33.27570 | -113.07914 | 18941 ft | 385 kts | 102° |
| 2026-05-05 15:46 | 33.27491 | -113.04711 | 18730 ft | 385 kts | 92° |
| 2026-05-05 15:46 | 33.27586 | -113.01523 | 18465 ft | 382 kts | 93° |
| 2026-05-05 15:46 | 33.27669 | -112.98353 | 18190 ft | 379 kts | 93° |
| 2026-05-05 15:47 | 33.27745 | -112.95214 | 17903 ft | 376 kts | 93° |
| 2026-05-05 15:47 | 33.27793 | -112.93142 | 17785 ft | 376 kts | 93° |
| 2026-05-05 15:47 | 33.27889 | -112.88978 | 17433 ft | 373 kts | 93° |
| 2026-05-05 15:47 | 33.27961 | -112.85933 | 17178 ft | 370 kts | 93° |
| 2026-05-05 15:48 | 33.28035 | -112.82891 | 17030 ft | 360 kts | 93° |
| 2026-05-05 15:48 | 33.28174 | -112.79927 | 16796 ft | 355 kts | 90° |
| 2026-05-05 15:48 | 33.28417 | -112.76994 | 16403 ft | 354 kts | 88° |
| 2026-05-05 15:48 | 33.28714 | -112.74076 | 16070 ft | 352 kts | 87° |
| 2026-05-05 15:49 | 33.29024 | -112.71187 | 15734 ft | 349 kts | 87° |
| 2026-05-05 15:49 | 33.29328 | -112.68329 | 15417 ft | 346 kts | 87° |
| 2026-05-05 15:49 | 33.29621 | -112.65476 | 15088 ft | 343 kts | 87° |
| 2026-05-05 15:49 | 33.29898 | -112.62659 | 14752 ft | 341 kts | 88° |
| 2026-05-05 15:50 | 33.30164 | -112.59848 | 14439 ft | 338 kts | 88° |
| 2026-05-05 15:50 | 33.30423 | -112.57054 | 14128 ft | 335 kts | 88° |
| 2026-05-05 15:50 | 33.30676 | -112.54287 | 13750 ft | 335 kts | 88° |
| 2026-05-05 15:50 | 33.30927 | -112.51540 | 13463 ft | 331 kts | 88° |
| 2026-05-05 15:51 | 33.31178 | -112.48808 | 13102 ft | 329 kts | 88° |
| 2026-05-05 15:51 | 33.31427 | -112.46098 | 12746 ft | 327 kts | 88° |
| 2026-05-05 15:51 | 33.31673 | -112.43402 | 12464 ft | 323 kts | 88° |
| 2026-05-05 15:51 | 33.31913 | -112.40747 | 12126 ft | 320 kts | 88° |
| 2026-05-05 15:52 | 33.32151 | -112.38116 | 11814 ft | 317 kts | 88° |
| 2026-05-05 15:52 | 33.32389 | -112.35503 | 11516 ft | 315 kts | 88° |
| 2026-05-05 15:52 | 33.32626 | -112.32913 | 11211 ft | 312 kts | 87° |
| 2026-05-05 15:52 | 33.32864 | -112.30339 | 10905 ft | 311 kts | 88° |
| 2026-05-05 15:53 | 33.33098 | -112.27774 | 10608 ft | 309 kts | 88° |
| 2026-05-05 15:53 | 33.33328 | -112.25225 | 10299 ft | 307 kts | 87° |
| 2026-05-05 15:53 | 33.33558 | -112.22692 | 10000 ft | 306 kts | 87° |
| 2026-05-05 15:53 | 33.33783 | -112.20202 | 9692 ft | 304 kts | 87° |
| 2026-05-05 15:54 | 33.34009 | -112.17669 | 9398 ft | 300 kts | 87° |
| 2026-05-05 15:54 | 33.34231 | -112.15231 | 9303 ft | 289 kts | 87° |
| 2026-05-05 15:54 | 33.34445 | -112.12889 | 9176 ft | 278 kts | 88° |
| 2026-05-05 15:54 | 33.34646 | -112.10673 | 9067 ft | 266 kts | 89° |
| 2026-05-05 15:55 | 33.34765 | -112.08503 | 8925 ft | 257 kts | 96° |
| 2026-05-05 15:55 | 33.34733 | -112.06365 | 8625 ft | 256 kts | 97° |
| 2026-05-05 15:55 | 33.34704 | -112.04246 | 8356 ft | 253 kts | 96° |
| 2026-05-05 15:55 | 33.34675 | -112.02154 | 8093 ft | 251 kts | 95° |
| 2026-05-05 15:56 | 33.34648 | -112.00084 | 7824 ft | 248 kts | 96° |
| 2026-05-05 15:56 | 33.34622 | -111.98027 | 7566 ft | 246 kts | 95° |
| 2026-05-05 15:56 | 33.34594 | -111.95997 | 7307 ft | 243 kts | 95° |
| 2026-05-05 15:56 | 33.34566 | -111.93971 | 7051 ft | 243 kts | 95° |
| 2026-05-05 15:57 | 33.34559 | -111.91946 | 6744 ft | 245 kts | 93° |
| 2026-05-05 15:57 | 33.34600 | -111.89905 | 6480 ft | 246 kts | 92° |
| 2026-05-05 15:57 | 33.34663 | -111.87893 | 6228 ft | 243 kts | 91° |
| 2026-05-05 15:57 | 33.34750 | -111.85888 | 5964 ft | 240 kts | 90° |
| 2026-05-05 15:58 | 33.34832 | -111.83907 | 5671 ft | 238 kts | 90° |
| 2026-05-05 15:58 | 33.35246 | -111.82006 | 5350 ft | 240 kts | 60° |
| 2026-05-05 15:58 | 33.36425 | -111.80633 | 5060 ft | 237 kts | 24° |
| 2026-05-05 15:58 | 33.37994 | -111.80030 | 5028 ft | 239 kts | 9° |
| 2026-05-05 15:59 | 33.39637 | -111.79941 | 5027 ft | 236 kts | 349° |
| 2026-05-05 15:59 | 33.41202 | -111.80472 | 4948 ft | 232 kts | 331° |
| 2026-05-05 15:59 | 33.42523 | -111.81532 | 4640 ft | 227 kts | 314° |
| 2026-05-05 15:59 | 33.43466 | -111.83000 | 4385 ft | 218 kts | 295° |
| 2026-05-05 16:00 | 33.43959 | -111.84653 | 4296 ft | 205 kts | 279° |
| 2026-05-05 16:00 | 33.44056 | -111.86290 | 4168 ft | 192 kts | 269° |
| 2026-05-05 16:00 | 33.44060 | -111.87862 | 4066 ft | 186 kts | 268° |
| 2026-05-05 16:00 | 33.44063 | -111.89361 | 3924 ft | 175 kts | 269° |
| 2026-05-05 16:01 | 33.44066 | -111.90803 | 3558 ft | 172 kts | 268° |
| 2026-05-05 16:01 | 33.44070 | -111.92204 | 3285 ft | 162 kts | 269° |
| 2026-05-05 16:01 | 33.44072 | -111.93549 | 2857 ft | 161 kts | 270° |
| 2026-05-05 16:01 | 33.44075 | -111.94869 | 2441 ft | 157 kts | 268° |
| 2026-05-05 16:02 | 33.44077 | -111.96145 | 2009 ft | 156 kts | 270° |
| 2026-05-05 16:02 | 33.44097 | -111.97499 | 1726 ft | 163 kts | 270° |
| 2026-05-05 16:02 | 33.44083 | -111.98827 | 1313 ft | 157 kts | 268° |
| 2026-05-05 16:02 | 33.44078 | -112.00085 | 1147 ft | 141 kts | 270° |
| 2026-05-05 16:03 | 33.44087 | -112.01000 | 1131 ft | 68 kts | 270° |
| 2026-05-05 16:03 | 33.44080 | -112.01281 | 1136 ft | 19 kts | 259° |
| 2026-05-05 16:03 | 33.44028 | -112.01373 | 1133 ft | 11 kts | 226° |
| 2026-05-05 16:03 | 33.43984 | -112.01424 | 1133 ft | 10 kts | 212° |
| 2026-05-05 16:04 | 33.43920 | -112.01432 | 1133 ft | 8 kts | 162° |
| 2026-05-05 16:04 | 33.43901 | -112.01379 | 1133 ft | 6 kts | 99° |
| 2026-05-05 16:04 | 33.43902 | -112.01333 | 1131 ft | 5 kts | 89° |
| 2026-05-05 16:04 | 33.43903 | -112.01258 | 1131 ft | 11 kts | 89° |
| 2026-05-05 16:05 | 33.43904 | -112.01173 | 1131 ft | 10 kts | 89° |
| 2026-05-05 16:05 | 33.43902 | -112.01087 | 1131 ft | 17 kts | 91° |
| 2026-05-05 16:05 | 33.43902 | -112.00915 | 1131 ft | 21 kts | 90° |
| 2026-05-05 16:05 | 33.43902 | -112.00706 | 1131 ft | 27 kts | 89° |
| 2026-05-05 16:06 | 33.43901 | -112.00481 | 1131 ft | 27 kts | 90° |
| 2026-05-05 16:06 | 33.43905 | -112.00250 | 1131 ft | 28 kts | 89° |
| 2026-05-05 16:06 | 33.43905 | -112.00069 | 1131 ft | 18 kts | 91° |
| 2026-05-05 16:06 | 33.43904 | -111.99933 | 1131 ft | 14 kts | 90° |
| 2026-05-05 16:07 | 33.43885 | -111.99835 | 1134 ft | 11 kts | 141° |
| 2026-05-05 16:07 | 33.43830 | -111.99869 | 1133 ft | 9 kts | 236° |
| 2026-05-05 16:07 | 33.43819 | -111.99888 | 1132 ft | 0 kts | 236° |